Time;durP1;ratioP1;P1;durP2;ratioP2;P2;SDS_P1;SDS_P2;PMS_P1;PMS_P2;Temp;Humidity;BMP_temperature;BMP_pressure;BME280_temperature;BME280_humidity;BME280_pressure;Samples;Min_cycle;Max_cycle;Signal;HPM_P1;HPM_P2
2022/09/25 00:00:44;;;;;;;8.57;7.07;;;11.90;95.90;;;;;;5053914;28;20216;-71
2022/09/25 00:03:14;;;;;;;9.80;7.90;;;11.90;96.40;;;;;;5053096;28;20282;-72
2022/09/25 00:05:42;;;;;;;9.97;6.90;;;11.90;96.70;;;;;;5051693;28;20213;-71
2022/09/25 00:08:10;;;;;;;12.03;7.80;;;11.80;96.90;;;;;;5053060;28;20252;-71
2022/09/25 00:10:40;;;;;;;8.00;6.70;;;11.80;97.20;;;;;;5053232;28;20339;-71
2022/09/25 00:13:07;;;;;;;9.83;7.80;;;11.80;97.60;;;;;;5053186;28;20389;-72
2022/09/25 00:15:34;;;;;;;14.00;8.20;;;11.80;98.10;;;;;;5052290;28;20209;-70
2022/09/25 00:18:01;;;;;;;13.87;8.33;;;11.70;98.30;;;;;;5051382;28;20236;-70
2022/09/25 00:20:28;;;;;;;10.50;8.03;;;11.70;98.60;;;;;;5053077;28;20225;-71
2022/09/25 00:22:55;;;;;;;11.50;7.83;;;11.70;98.80;;;;;;5051002;28;20238;-72
2022/09/25 00:25:26;;;;;;;9.23;7.47;;;11.70;99.40;;;;;;5053242;28;20220;-72
2022/09/25 00:27:53;;;;;;;14.03;9.50;;;11.70;99.40;;;;;;5051334;28;20255;-71
2022/09/25 00:30:20;;;;;;;10.20;7.30;;;11.60;99.70;;;;;;5052349;28;20205;-71
2022/09/25 00:32:47;;;;;;;9.87;7.77;;;11.60;99.90;;;;;;5053030;28;20222;-70
2022/09/25 00:35:13;;;;;;;12.10;8.27;;;11.60;99.90;;;;;;5052482;28;20240;-71
2022/09/25 00:37:41;;;;;;;12.63;8.50;;;11.60;99.90;;;;;;5051676;28;20704;-71
2022/09/25 00:40:09;;;;;;;13.27;8.33;;;11.60;99.90;;;;;;5049237;28;20576;-70
2022/09/25 00:42:36;;;;;;;11.00;8.17;;;11.50;99.90;;;;;;5049677;28;20226;-70
2022/09/25 00:45:03;;;;;;;15.17;8.77;;;11.50;99.90;;;;;;5052313;28;20213;-69
2022/09/25 00:47:47;;;;;;;13.23;9.27;;;11.50;99.90;;;;;;5051572;28;20210;-70
2022/09/25 00:50:23;;;;;;;16.43;9.30;;;11.40;99.90;;;;;;5051241;28;20201;-70
2022/09/25 00:52:53;;;;;;;11.27;9.07;;;11.40;99.90;;;;;;5051457;28;20217;-70
2022/09/25 00:55:22;;;;;;;12.37;9.00;;;11.40;99.90;;;;;;5051129;28;20205;-71
2022/09/25 00:57:53;;;;;;;13.43;9.27;;;11.40;99.90;;;;;;5048634;28;20280;-70
2022/09/25 01:00:19;;;;;;;12.00;8.53;;;11.30;99.90;;;;;;5051532;28;20198;-71
2022/09/25 01:02:51;;;;;;;13.10;9.10;;;11.30;99.90;;;;;;5051785;28;20296;-70
2022/09/25 01:05:21;;;;;;;17.77;10.67;;;11.30;99.90;;;;;;5052058;28;20206;-70
2022/09/25 01:07:51;;;;;;;12.73;8.87;;;11.30;99.90;;;;;;5052742;28;20217;-71
2022/09/25 01:10:20;;;;;;;12.37;8.20;;;11.30;99.90;;;;;;5049698;28;20244;-71
2022/09/25 01:12:49;;;;;;;15.53;8.93;;;11.20;99.90;;;;;;5051517;28;20253;-70
2022/09/25 01:15:20;;;;;;;14.60;9.13;;;11.20;99.90;;;;;;5047584;28;20212;-70
2022/09/25 01:17:57;;;;;;;12.83;8.47;;;11.20;99.90;;;;;;5051319;28;20202;-70
2022/09/25 01:20:44;;;;;;;14.43;9.23;;;11.20;99.90;;;;;;5048032;28;20205;-71
2022/09/25 01:23:22;;;;;;;11.90;8.87;;;11.20;99.90;;;;;;5051665;28;20249;-70
2022/09/25 01:26:04;;;;;;;10.93;8.23;;;11.20;99.90;;;;;;5051251;28;20205;-71
2022/09/25 01:28:50;;;;;;;12.07;8.87;;;11.10;99.90;;;;;;5051432;28;20220;-70
2022/09/25 01:31:22;;;;;;;12.47;9.40;;;11.10;99.90;;;;;;5051167;28;20498;-70
2022/09/25 01:33:55;;;;;;;11.90;9.20;;;11.10;99.90;;;;;;5050483;28;20312;-70
2022/09/25 01:36:28;;;;;;;15.90;9.67;;;11.10;99.90;;;;;;5048767;28;20205;-70
2022/09/25 01:39:03;;;;;;;16.37;9.40;;;11.00;99.90;;;;;;5049947;28;20505;-71
2022/09/25 01:41:35;;;;;;;15.93;9.33;;;11.00;99.90;;;;;;5050988;28;20209;-70
2022/09/25 01:44:09;;;;;;;14.63;10.50;;;11.00;99.90;;;;;;5049541;28;20209;-72
2022/09/25 01:46:40;;;;;;;14.90;10.53;;;11.00;99.90;;;;;;5050503;28;20202;-72
2022/09/25 01:49:11;;;;;;;14.67;10.47;;;11.00;99.90;;;;;;5047596;28;20208;-72
2022/09/25 01:51:41;;;;;;;16.60;10.57;;;11.00;99.90;;;;;;5048453;28;20212;-72
2022/09/25 01:54:12;;;;;;;14.33;10.07;;;10.90;99.90;;;;;;5050126;28;20286;-72
2022/09/25 01:56:43;;;;;;;14.63;10.77;;;10.90;99.90;;;;;;5050803;28;20572;-71
2022/09/25 01:59:17;;;;;;;17.23;11.93;;;10.90;99.90;;;;;;5046610;28;20413;-73
2022/09/25 02:01:46;;;;;;;16.97;10.67;;;10.90;99.90;;;;;;5036465;28;20232;-70
2022/09/25 02:04:17;;;;;;;17.03;12.07;;;10.90;99.90;;;;;;5050418;28;20274;-70
2022/09/25 02:06:48;;;;;;;18.87;11.63;;;10.80;99.90;;;;;;5049802;28;20253;-70
2022/09/25 02:09:19;;;;;;;18.10;12.10;;;10.80;99.90;;;;;;5049423;28;20217;-71
2022/09/25 02:11:50;;;;;;;17.90;11.70;;;10.80;99.90;;;;;;5050170;28;20205;-70
2022/09/25 02:14:22;;;;;;;20.37;12.60;;;10.80;99.90;;;;;;5049583;28;20698;-71
2022/09/25 02:16:54;;;;;;;17.37;11.70;;;10.80;99.90;;;;;;5048777;28;20217;-71
2022/09/25 02:22:10;;;;;;;19.13;11.47;;;10.70;99.90;;;;;;5049307;28;20256;-71
2022/09/25 02:24:46;;;;;;;18.53;12.57;;;10.70;99.90;;;;;;5050004;28;20206;-71
2022/09/25 02:27:13;;;;;;;17.23;11.90;;;10.60;99.90;;;;;;5049413;28;20209;-70
2022/09/25 02:29:42;;;;;;;18.73;11.90;;;10.70;99.90;;;;;;5048136;28;20208;-71
2022/09/25 02:32:12;;;;;;;17.40;11.80;;;10.70;99.90;;;;;;5047983;28;20210;-71
2022/09/25 02:34:39;;;;;;;16.50;11.97;;;10.60;99.90;;;;;;5050153;28;20221;-71
2022/09/25 02:37:11;;;;;;;18.30;11.77;;;10.60;99.90;;;;;;5049331;28;20590;-70
2022/09/25 02:39:38;;;;;;;18.13;12.27;;;10.60;99.90;;;;;;5048545;28;20438;-71
2022/09/25 02:42:24;;;;;;;18.43;12.33;;;10.60;99.90;;;;;;5049624;28;20573;-70
2022/09/25 02:45:07;;;;;;;20.70;12.33;;;10.50;99.90;;;;;;5047212;28;20205;-71
2022/09/25 02:47:39;;;;;;;18.27;12.57;;;10.50;99.90;;;;;;5049150;28;20209;-71
2022/09/25 02:50:15;;;;;;;18.07;12.13;;;10.50;99.90;;;;;;5048718;28;20213;-71
2022/09/25 02:52:50;;;;;;;21.37;11.07;;;10.50;99.90;;;;;;5050498;28;20201;-71
2022/09/25 02:55:24;;;;;;;17.67;12.03;;;10.50;99.90;;;;;;5048715;28;20229;-71
2022/09/25 02:57:54;;;;;;;16.07;11.93;;;10.50;99.90;;;;;;5047441;28;20256;-71
2022/09/25 03:00:22;;;;;;;17.00;11.23;;;10.50;99.90;;;;;;5041845;28;20213;-72
2022/09/25 03:02:53;;;;;;;16.70;11.63;;;10.60;99.90;;;;;;5049619;28;20206;-72
2022/09/25 03:05:21;;;;;;;17.23;11.07;;;10.50;99.90;;;;;;5048196;28;20205;-72
2022/09/25 03:10:36;;;;;;;16.70;11.90;;;10.50;99.90;;;;;;5049185;28;20217;-72
2022/09/25 03:13:14;;;;;;;17.83;12.20;;;10.50;99.90;;;;;;5049848;28;20617;-72
2022/09/25 03:15:45;;;;;;;16.90;12.00;;;10.50;99.90;;;;;;5049281;28;20205;-72
2022/09/25 03:18:13;;;;;;;15.83;11.60;;;10.50;99.90;;;;;;5049311;28;20206;-72
2022/09/25 03:20:40;;;;;;;17.03;11.47;;;10.40;99.90;;;;;;5048603;28;20234;-72
2022/09/25 03:23:07;;;;;;;15.90;10.83;;;10.50;99.90;;;;;;5049963;28;20253;-72
2022/09/25 03:25:34;;;;;;;17.60;12.17;;;10.40;99.90;;;;;;5053895;28;20295;-72
2022/09/25 03:28:01;;;;;;;15.87;11.37;;;10.40;99.90;;;;;;5052614;28;20666;-72
2022/09/25 03:30:29;;;;;;;16.73;11.43;;;10.40;99.90;;;;;;5052238;28;20206;-72
2022/09/25 03:32:57;;;;;;;14.53;11.17;;;10.40;99.90;;;;;;5053478;28;20249;-73
2022/09/25 03:35:24;;;;;;;16.17;10.83;;;10.40;99.90;;;;;;5052042;28;20234;-73
2022/09/25 03:37:50;;;;;;;15.00;10.77;;;10.30;99.90;;;;;;5051823;28;20205;-72
2022/09/25 03:40:17;;;;;;;14.50;10.27;;;10.30;99.90;;;;;;5051465;28;20293;-72
2022/09/25 03:42:44;;;;;;;13.53;9.43;;;10.40;99.90;;;;;;5053123;28;20206;-71
2022/09/25 03:45:11;;;;;;;12.13;8.87;;;10.40;99.90;;;;;;5052504;28;20209;-72
2022/09/25 03:47:37;;;;;;;12.43;9.50;;;10.40;99.90;;;;;;5051754;28;20212;-71
2022/09/25 03:50:07;;;;;;;14.27;9.70;;;10.30;99.90;;;;;;5052580;28;20237;-71
2022/09/25 03:52:34;;;;;;;14.03;9.97;;;10.40;99.90;;;;;;5052506;28;20213;-71
2022/09/25 03:55:01;;;;;;;12.73;10.20;;;10.40;99.90;;;;;;5045488;28;20234;-71
2022/09/25 03:57:28;;;;;;;12.33;9.07;;;10.40;99.90;;;;;;5044740;28;20682;-72
2022/09/25 03:59:54;;;;;;;13.33;9.77;;;10.40;99.90;;;;;;5051164;28;20213;-71
2022/09/25 04:02:21;;;;;;;13.40;10.00;;;10.40;99.90;;;;;;5052358;28;20651;-71
2022/09/25 04:04:48;;;;;;;13.23;9.80;;;10.40;99.90;;;;;;5052781;28;20202;-70
2022/09/25 04:07:17;;;;;;;11.93;9.60;;;10.50;99.90;;;;;;5052661;28;20698;-70
2022/09/25 04:09:46;;;;;;;12.70;9.47;;;10.40;99.90;;;;;;5052143;28;20198;-70
2022/09/25 04:12:13;;;;;;;12.10;9.17;;;10.50;99.90;;;;;;5049823;28;20210;-70
2022/09/25 04:14:44;;;;;;;12.43;9.70;;;10.50;99.90;;;;;;5052729;28;20876;-71
2022/09/25 04:17:11;;;;;;;14.47;10.70;;;10.50;99.90;;;;;;5052224;28;20221;-70
2022/09/25 04:19:38;;;;;;;12.57;9.93;;;10.50;99.90;;;;;;5052053;28;20206;-72
2022/09/25 04:22:05;;;;;;;15.53;10.73;;;10.50;99.90;;;;;;5051551;28;20236;-74
2022/09/25 04:24:48;;;;;;;11.60;9.70;;;10.50;99.90;;;;;;5053180;28;20564;-71
2022/09/25 04:27:17;;;;;;;14.33;11.77;;;10.50;99.90;;;;;;5051526;28;20606;-71
2022/09/25 04:29:45;;;;;;;14.70;10.73;;;10.50;99.90;;;;;;5048049;28;20214;-70
2022/09/25 04:34:56;;;;;;;12.90;9.57;;;10.50;99.90;;;;;;5051765;28;20224;-68
2022/09/25 04:37:25;;;;;;;13.90;10.20;;;10.50;99.90;;;;;;5052001;28;20268;-68
2022/09/25 04:39:53;;;;;;;14.00;10.77;;;10.50;99.90;;;;;;5050204;28;20214;-68
2022/09/25 04:42:23;;;;;;;13.47;9.73;;;10.50;99.90;;;;;;5049765;28;20486;-68
2022/09/25 04:44:51;;;;;;;12.80;10.40;;;10.50;99.90;;;;;;5051643;28;20202;-72
2022/09/25 04:47:18;;;;;;;13.53;9.20;;;10.60;99.90;;;;;;5051422;28;20256;-73
2022/09/25 04:49:45;;;;;;;11.83;9.87;;;10.60;99.90;;;;;;5051225;28;20655;-73
2022/09/25 04:52:12;;;;;;;12.40;9.73;;;10.60;99.90;;;;;;5051200;28;20213;-73
2022/09/25 04:54:39;;;;;;;11.47;9.23;;;10.60;99.90;;;;;;5051416;28;20256;-73
2022/09/25 04:57:07;;;;;;;12.63;9.40;;;10.70;99.90;;;;;;5051378;28;20213;-73
2022/09/25 04:59:34;;;;;;;11.50;10.07;;;10.70;99.90;;;;;;5048897;28;20730;-72
2022/09/25 05:02:01;;;;;;;12.73;10.13;;;10.70;99.90;;;;;;5042522;28;20245;-72
2022/09/25 05:04:28;;;;;;;13.57;10.13;;;10.70;99.90;;;;;;5051930;28;20202;-73
2022/09/25 05:06:54;;;;;;;13.07;10.10;;;10.70;99.90;;;;;;5051411;28;20225;-72
2022/09/25 05:09:21;;;;;;;14.40;10.67;;;10.70;99.90;;;;;;5049584;28;20221;-72
2022/09/25 05:11:48;;;;;;;14.50;10.97;;;10.70;99.90;;;;;;5050065;28;20569;-72
2022/09/25 05:14:16;;;;;;;15.57;11.03;;;10.80;99.90;;;;;;5048742;28;20222;-72
2022/09/25 05:16:43;;;;;;;15.67;11.77;;;10.80;99.90;;;;;;5051326;28;20205;-73
2022/09/25 05:19:10;;;;;;;15.60;11.27;;;10.80;99.90;;;;;;5050500;28;20217;-72
2022/09/25 05:21:36;;;;;;;14.87;11.27;;;10.90;99.90;;;;;;5048341;28;20202;-72
2022/09/25 05:24:04;;;;;;;14.47;10.80;;;10.90;99.90;;;;;;5050016;28;20249;-72
2022/09/25 05:26:33;;;;;;;17.47;11.33;;;10.90;99.90;;;;;;5051558;28;20221;-72
2022/09/25 05:29:00;;;;;;;15.70;10.77;;;11.00;99.90;;;;;;5052694;28;20214;-73
2022/09/25 05:31:28;;;;;;;14.40;11.30;;;11.00;99.90;;;;;;5051825;28;20210;-72
2022/09/25 05:33:55;;;;;;;16.63;10.40;;;11.00;99.90;;;;;;5051108;28;20241;-72
2022/09/25 05:36:22;;;;;;;15.93;11.73;;;11.10;99.90;;;;;;5050588;28;20206;-72
2022/09/25 05:38:48;;;;;;;14.47;11.27;;;11.20;99.90;;;;;;5049933;28;20215;-72
2022/09/25 05:41:15;;;;;;;15.13;11.43;;;11.20;99.90;;;;;;5038101;28;20221;-73
2022/09/25 05:43:46;;;;;;;14.63;11.53;;;11.30;99.90;;;;;;5051994;28;20210;-73
2022/09/25 05:46:13;;;;;;;15.37;11.13;;;11.30;99.90;;;;;;5051946;28;20194;-73
2022/09/25 05:48:42;;;;;;;15.23;11.90;;;11.40;99.90;;;;;;5048515;28;20225;-73
2022/09/25 05:51:09;;;;;;;15.27;11.50;;;11.40;99.90;;;;;;5051969;28;20210;-72
2022/09/25 05:53:37;;;;;;;17.27;11.57;;;11.50;99.90;;;;;;5050383;28;20236;-71
2022/09/25 05:56:05;;;;;;;14.30;11.47;;;11.60;99.90;;;;;;5050916;28;20298;-73
2022/09/25 05:58:33;;;;;;;15.30;12.63;;;11.70;99.90;;;;;;5049269;28;20210;-74
2022/09/25 06:01:02;;;;;;;14.90;11.70;;;11.70;99.90;;;;;;5050529;28;20213;-74
2022/09/25 06:03:29;;;;;;;14.60;11.97;;;11.80;99.90;;;;;;5050412;28;20202;-74
2022/09/25 06:05:57;;;;;;;17.00;11.97;;;11.70;99.90;;;;;;5050810;28;20638;-73
2022/09/25 06:08:25;;;;;;;15.20;11.67;;;11.90;99.90;;;;;;5048743;28;20206;-74
2022/09/25 06:10:54;;;;;;;14.17;11.93;;;11.90;99.90;;;;;;5049782;28;20605;-73
2022/09/25 06:13:22;;;;;;;14.77;12.03;;;11.90;99.90;;;;;;5050192;28;20279;-74
2022/09/25 06:15:51;;;;;;;16.80;11.83;;;11.90;99.90;;;;;;5049913;28;20257;-74
2022/09/25 06:18:19;;;;;;;16.23;11.90;;;11.90;99.90;;;;;;5049211;28;20237;-73
2022/09/25 06:20:47;;;;;;;15.37;12.10;;;11.90;99.90;;;;;;5041168;28;20892;-73
2022/09/25 06:23:15;;;;;;;17.73;12.53;;;11.90;99.90;;;;;;5050037;28;20580;-73
2022/09/25 06:25:42;;;;;;;16.83;12.27;;;11.90;99.90;;;;;;5048326;28;20202;-72
2022/09/25 06:28:11;;;;;;;15.30;12.60;;;11.90;99.90;;;;;;5047581;28;20210;-73
2022/09/25 06:30:38;;;;;;;16.17;13.37;;;12.00;99.90;;;;;;5048223;28;20206;-74
2022/09/25 06:33:08;;;;;;;16.90;12.30;;;12.10;99.90;;;;;;5050323;28;20202;-73
2022/09/25 06:35:35;;;;;;;17.97;13.20;;;12.10;99.90;;;;;;5047507;28;20230;-72
2022/09/25 06:38:03;;;;;;;17.73;12.67;;;12.20;99.90;;;;;;5048580;28;20205;-72
2022/09/25 06:40:32;;;;;;;16.60;12.60;;;12.30;99.90;;;;;;5047718;28;20218;-74
2022/09/25 06:43:00;;;;;;;15.63;11.87;;;12.40;99.90;;;;;;5048476;28;20210;-74
2022/09/25 06:45:29;;;;;;;16.47;12.30;;;12.50;99.90;;;;;;5047724;28;20217;-75
2022/09/25 06:48:00;;;;;;;17.80;12.73;;;12.60;99.90;;;;;;5050886;28;20581;-74
2022/09/25 06:50:30;;;;;;;16.20;12.60;;;12.70;99.90;;;;;;5046059;28;20198;-72
2022/09/25 06:52:58;;;;;;;18.57;11.77;;;12.70;99.90;;;;;;5049306;28;20205;-69
2022/09/25 06:55:24;;;;;;;13.47;10.93;;;12.80;99.90;;;;;;5048393;28;20229;-70
2022/09/25 06:57:52;;;;;;;14.93;12.07;;;12.90;99.90;;;;;;5049217;28;21057;-72
2022/09/25 07:00:20;;;;;;;16.80;12.43;;;12.90;99.90;;;;;;5045859;28;20221;-72
2022/09/25 07:05:31;;;;;;;16.97;12.43;;;13.20;99.90;;;;;;5047421;28;20200;-72
2022/09/25 07:07:57;;;;;;;14.77;11.73;;;13.30;99.90;;;;;;5052627;28;20205;-71
2022/09/25 07:10:24;;;;;;;17.23;12.20;;;13.40;99.90;;;;;;5053480;28;20209;-71
2022/09/25 07:12:53;;;;;;;16.70;11.87;;;13.50;99.90;;;;;;5058167;28;20598;-71
2022/09/25 07:15:19;;;;;;;16.50;11.73;;;13.60;99.90;;;;;;5052276;28;20218;-71
2022/09/25 07:17:46;;;;;;;16.47;11.80;;;13.70;99.90;;;;;;5049702;28;20216;-71
2022/09/25 07:20:14;;;;;;;15.60;11.73;;;13.80;99.90;;;;;;5051450;28;20205;-72
2022/09/25 07:22:41;;;;;;;15.97;12.70;;;13.90;99.90;;;;;;5051907;28;20716;-71
2022/09/25 07:25:09;;;;;;;17.50;12.83;;;14.00;99.90;;;;;;5051479;28;20206;-72
2022/09/25 07:27:36;;;;;;;14.17;12.30;;;14.10;99.90;;;;;;5054791;28;20210;-71
2022/09/25 07:30:05;;;;;;;16.87;12.47;;;14.20;99.90;;;;;;5054357;28;20220;-72
2022/09/25 07:32:32;;;;;;;16.83;10.87;;;14.40;99.90;;;;;;5051021;28;20206;-73
2022/09/25 07:34:59;;;;;;;18.97;12.63;;;14.50;99.90;;;;;;5055966;28;20322;-73
2022/09/25 07:37:26;;;;;;;15.90;12.53;;;14.70;99.90;;;;;;5051775;28;20206;-75
2022/09/25 07:39:52;;;;;;;17.37;12.27;;;14.80;99.90;;;;;;5053864;28;20213;-72
2022/09/25 07:42:19;;;;;;;15.33;12.53;;;15.00;99.90;;;;;;5052255;28;20230;-70
2022/09/25 07:44:46;;;;;;;16.33;12.87;;;15.30;99.90;;;;;;5051476;28;20205;-72
2022/09/25 07:47:14;;;;;;;15.80;12.30;;;15.40;99.90;;;;;;5050716;28;20209;-74
2022/09/25 07:49:41;;;;;;;16.60;12.20;;;15.70;99.90;;;;;;5052927;28;20651;-70
2022/09/25 07:52:07;;;;;;;18.67;11.70;;;15.90;99.90;;;;;;5051018;28;20206;-70
2022/09/25 07:54:34;;;;;;;17.27;12.43;;;16.10;99.90;;;;;;5052855;28;20214;-72
2022/09/25 07:57:01;;;;;;;13.17;10.93;;;16.20;99.90;;;;;;5052673;28;20205;-73
2022/09/25 07:59:28;;;;;;;14.17;11.63;;;16.40;99.50;;;;;;5052328;28;20213;-72
2022/09/25 08:01:56;;;;;;;13.80;11.37;;;16.50;99.20;;;;;;5051997;28;20210;-73
2022/09/25 08:04:25;;;;;;;14.40;11.97;;;16.70;98.60;;;;;;5050338;28;20301;-72
2022/09/25 08:06:51;;;;;;;13.20;11.20;;;16.90;98.40;;;;;;5049778;28;20202;-73
2022/09/25 08:09:18;;;;;;;14.95;10.57;;;17.10;97.90;;;;;;5051738;28;20218;-70
2022/09/25 08:11:45;;;;;;;11.50;9.47;;;17.30;97.10;;;;;;5051603;28;20204;-74
2022/09/25 08:14:13;;;;;;;12.40;9.80;;;17.50;96.80;;;;;;5046176;28;20210;-71
2022/09/25 08:16:40;;;;;;;12.68;10.18;;;17.70;95.80;;;;;;5047040;28;20310;-72
2022/09/25 08:19:06;;;;;;;13.40;9.63;;;18.00;95.30;;;;;;5048925;28;20286;-73
2022/09/25 08:21:35;;;;;;;11.73;10.20;;;18.30;94.20;;;;;;5056586;28;20206;-71
2022/09/25 08:24:02;;;;;;;13.45;9.82;;;18.50;93.30;;;;;;5044228;28;20252;-70
2022/09/25 08:26:30;;;;;;;11.82;9.65;;;18.60;92.60;;;;;;5045870;28;20212;-68
2022/09/25 08:28:58;;;;;;;11.95;9.88;;;18.80;91.80;;;;;;5047738;28;20466;-70
2022/09/25 08:31:25;;;;;;;12.80;11.02;;;18.80;91.30;;;;;;5048989;28;20454;-71
2022/09/25 08:33:53;;;;;;;11.98;9.35;;;18.70;90.90;;;;;;5049958;28;20228;-72
2022/09/25 08:36:20;;;;;;;13.45;10.93;;;18.60;90.80;;;;;;5045981;28;20448;-71
2022/09/25 08:38:49;;;;;;;16.60;11.93;;;18.40;91.10;;;;;;5046008;28;20304;-69
2022/09/25 08:41:21;;;;;;;15.70;11.65;;;18.30;91.40;;;;;;5044165;28;20232;-70
2022/09/25 08:43:57;;;;;;;12.85;10.85;;;18.10;91.40;;;;;;5044231;28;20612;-73
2022/09/25 08:49:19;;;;;;;22.38;13.40;;;18.10;92.00;;;;;;5052699;28;20209;-72
2022/09/25 08:51:48;;;;;;;16.05;11.88;;;18.30;92.20;;;;;;5044997;28;20534;-73
2022/09/25 08:54:21;;;;;;;14.75;11.75;;;18.40;91.90;;;;;;5044950;28;20203;-75
2022/09/25 08:56:50;;;;;;;18.63;13.52;;;18.70;91.80;;;;;;5049594;28;20206;-74
2022/09/25 08:59:25;;;;;;;14.30;12.85;;;19.10;91.90;;;;;;5047962;28;20539;-75
2022/09/25 09:01:55;;;;;;;14.23;11.55;;;19.50;90.90;;;;;;5048095;28;20678;-74
2022/09/25 09:04:28;;;;;;;14.27;10.65;;;20.10;90.40;;;;;;5045495;28;20455;-73
2022/09/25 09:07:03;;;;;;;10.88;9.25;;;20.70;86.80;;;;;;5049856;28;20216;-75
2022/09/25 09:09:37;;;;;;;12.00;9.70;;;21.50;82.30;;;;;;5049323;28;20644;-75
2022/09/25 09:12:10;;;;;;;11.90;10.05;;;23.00;78.90;;;;;;5049451;28;20458;-75
2022/09/25 09:14:43;;;;;;;14.73;10.80;;;25.00;72.20;;;;;;5051170;28;20710;-76
2022/09/25 09:17:17;;;;;;;10.10;8.98;;;28.00;60.80;;;;;;5049118;28;20210;-74
2022/09/25 09:19:48;;;;;;;26.30;14.40;;;30.90;53.00;;;;;;5048395;28;20751;-74
2022/09/25 09:22:21;;;;;;;8.85;7.45;;;33.70;46.40;;;;;;5051808;28;20329;-73
2022/09/25 09:24:55;;;;;;;8.80;7.90;;;35.90;40.70;;;;;;5050761;28;20209;-74
2022/09/25 09:27:43;;;;;;;7.25;6.55;;;37.80;36.80;;;;;;5050699;28;20205;-73
2022/09/25 09:30:15;;;;;;;8.50;7.43;;;38.90;33.70;;;;;;5050305;28;20583;-72
2022/09/25 09:32:53;;;;;;;7.60;6.22;;;39.50;32.70;;;;;;5050375;28;20210;-72
2022/09/25 09:35:28;;;;;;;7.35;6.57;;;39.80;31.50;;;;;;5045575;28;20201;-74
2022/09/25 09:38:04;;;;;;;10.02;6.15;;;39.70;31.00;;;;;;5049269;28;20209;-75
2022/09/25 09:40:54;;;;;;;7.63;6.80;;;39.50;30.90;;;;;;5061475;28;20233;-74
2022/09/25 09:43:31;;;;;;;7.72;6.38;;;39.80;31.10;;;;;;5042334;28;20289;-76
2022/09/25 09:46:06;;;;;;;7.22;6.53;;;40.50;30.50;;;;;;5049645;28;20217;-74
2022/09/25 09:48:39;;;;;;;7.15;6.10;;;41.00;29.80;;;;;;5055257;28;20216;-74
2022/09/25 09:51:11;;;;;;;6.38;5.82;;;41.20;29.40;;;;;;5048426;28;21025;-73
2022/09/25 09:53:42;;;;;;;19.48;11.75;;;41.10;29.40;;;;;;5046396;28;20555;-71
2022/09/25 09:56:14;;;;;;;10.82;8.32;;;41.30;29.50;;;;;;5048057;28;20228;-72
2022/09/25 09:58:49;;;;;;;7.43;6.63;;;41.60;29.40;;;;;;5050277;28;20263;-70
2022/09/25 10:01:19;;;;;;;6.32;5.53;;;42.00;28.60;;;;;;5046250;28;20693;-71
2022/09/25 10:03:49;;;;;;;7.55;6.45;;;41.90;28.40;;;;;;5050542;28;20291;-70
2022/09/25 10:06:17;;;;;;;6.25;5.45;;;41.70;28.30;;;;;;5055325;28;20209;-74
2022/09/25 10:08:44;;;;;;;7.65;5.85;;;41.90;28.30;;;;;;5052697;28;20205;-73
2022/09/25 10:11:16;;;;;;;5.78;5.28;;;42.10;28.20;;;;;;5054928;28;20213;-72
2022/09/25 10:13:44;;;;;;;5.60;5.10;;;42.20;28.00;;;;;;5051498;28;20205;-71
2022/09/25 10:16:14;;;;;;;6.55;5.82;;;43.00;27.80;;;;;;5051075;28;20237;-71
2022/09/25 10:18:46;;;;;;;6.75;6.15;;;44.00;27.20;;;;;;5050304;28;20205;-72
2022/09/25 10:21:15;;;;;;;5.13;4.68;;;44.50;26.70;;;;;;5050298;28;20209;-72
2022/09/25 10:23:48;;;;;;;5.55;5.05;;;44.10;26.50;;;;;;5045122;28;20690;-71
2022/09/25 10:26:31;;;;;;;5.70;5.20;;;44.20;26.60;;;;;;5051139;28;20275;-71
2022/09/25 10:29:00;;;;;;;4.75;4.35;;;44.80;26.30;;;;;;5050702;28;20208;-73
2022/09/25 10:31:30;;;;;;;4.75;4.35;;;45.70;25.70;;;;;;5048395;28;20213;-71
2022/09/25 10:34:05;;;;;;;5.35;4.75;;;46.30;25.30;;;;;;5050352;28;20266;-71
2022/09/25 10:36:36;;;;;;;4.50;4.10;;;46.30;25.00;;;;;;5051390;28;20243;-71
2022/09/25 10:39:05;;;;;;;4.88;4.35;;;46.40;25.00;;;;;;5050667;28;20556;-71
2022/09/25 10:41:41;;;;;;;4.32;3.92;;;46.70;24.60;;;;;;5036843;28;20209;-71
2022/09/25 10:44:22;;;;;;;4.57;4.28;;;46.40;24.10;;;;;;5047150;28;20219;-71
2022/09/25 10:52:44;;;;;;;3.30;3.00;;;45.50;23.60;;;;;;5050130;28;20212;-75
2022/09/25 10:55:24;;;;;;;3.55;3.20;;;44.40;23.40;;;;;;5047564;28;20201;-71
2022/09/25 10:57:57;;;;;;;3.65;3.22;;;43.60;24.20;;;;;;5048562;28;20318;-71
2022/09/25 11:00:26;;;;;;;3.67;3.38;;;43.00;24.70;;;;;;5050433;28;20213;-71
2022/09/25 11:02:57;;;;;;;3.90;3.55;;;43.40;24.90;;;;;;5050105;28;20208;-71
2022/09/25 11:05:28;;;;;;;3.55;3.25;;;43.60;24.50;;;;;;5039175;28;20292;-71
2022/09/25 11:07:59;;;;;;;3.88;3.55;;;43.60;24.60;;;;;;5049296;28;20202;-72
2022/09/25 11:10:29;;;;;;;4.10;2.90;;;43.20;24.50;;;;;;5049775;28;20193;-71
2022/09/25 11:12:58;;;;;;;3.55;3.25;;;43.10;24.70;;;;;;5049837;28;20523;-70
2022/09/25 11:15:27;;;;;;;3.25;2.92;;;43.20;24.50;;;;;;5048909;28;20201;-73
2022/09/25 11:17:55;;;;;;;3.97;3.58;;;43.00;24.20;;;;;;5050252;28;20253;-71
2022/09/25 11:20:28;;;;;;;4.13;3.72;;;43.30;24.10;;;;;;5049378;28;20205;-71
2022/09/25 11:23:03;;;;;;;4.97;4.15;;;43.90;24.20;;;;;;5048014;28;20294;-70
2022/09/25 11:25:39;;;;;;;5.05;4.30;;;44.50;24.10;;;;;;5049280;28;20201;-71
2022/09/25 11:28:13;;;;;;;4.60;4.18;;;44.60;24.30;;;;;;5049684;28;20223;-70
2022/09/25 11:30:45;;;;;;;5.40;4.30;;;44.70;24.10;;;;;;5052424;28;20216;-71
2022/09/25 11:33:19;;;;;;;3.88;3.58;;;45.00;24.10;;;;;;5047647;28;20216;-72
2022/09/25 11:35:52;;;;;;;3.85;3.55;;;45.30;23.80;;;;;;5049729;28;20224;-71
2022/09/25 11:41:21;;;;;;;5.40;3.88;;;46.10;23.10;;;;;;5049420;28;20194;-71
2022/09/25 11:43:57;;;;;;;3.88;3.58;;;46.70;23.00;;;;;;5051339;28;20233;-71
2022/09/25 11:46:34;;;;;;;4.13;3.60;;;46.50;23.10;;;;;;5052717;28;20201;-71
2022/09/25 11:49:10;;;;;;;3.90;3.50;;;45.90;23.20;;;;;;5053345;28;20563;-72
2022/09/25 11:52:09;;;;;;;3.83;3.53;;;45.90;23.40;;;;;;5052649;28;20688;-71
2022/09/25 11:54:46;;;;;;;5.20;4.70;;;46.10;23.20;;;;;;5052126;28;20812;-71
2022/09/25 11:57:19;;;;;;;4.25;3.80;;;45.90;23.30;;;;;;5052473;28;20217;-70
2022/09/25 12:00:03;;;;;;;4.13;3.65;;;45.70;23.60;;;;;;5053094;28;20197;-72
2022/09/25 12:02:41;;;;;;;3.03;2.83;;;45.70;23.40;;;;;;5052270;28;20221;-71
2022/09/25 12:05:26;;;;;;;5.32;4.10;;;45.20;23.50;;;;;;5040122;28;20202;-73
2022/09/25 12:08:07;;;;;;;5.63;4.03;;;44.50;24.00;;;;;;5038838;28;20202;-72
2022/09/25 12:10:44;;;;;;;4.45;4.05;;;43.60;24.50;;;;;;5052055;28;20206;-70
2022/09/25 12:13:19;;;;;;;4.55;4.15;;;42.90;24.80;;;;;;5048175;28;20201;-71
2022/09/25 12:15:56;;;;;;;4.47;4.05;;;41.30;25.00;;;;;;5053459;28;20205;-72
2022/09/25 12:18:36;;;;;;;4.43;4.03;;;38.70;26.40;;;;;;5051861;28;20289;-71
2022/09/25 12:21:09;;;;;;;4.30;3.90;;;35.90;28.10;;;;;;5043559;28;20210;-70
2022/09/25 12:23:42;;;;;;;5.05;4.55;;;33.90;29.90;;;;;;5036363;28;20242;-71
2022/09/25 12:26:23;;;;;;;4.70;4.25;;;32.70;31.40;;;;;;5042680;28;20650;-71
2022/09/25 12:29:05;;;;;;;7.38;4.60;;;32.10;33.90;;;;;;5058681;28;20206;-72
2022/09/25 12:31:44;;;;;;;4.75;4.30;;;31.90;33.50;;;;;;5052764;28;20609;-72
2022/09/25 12:34:25;;;;;;;4.60;3.95;;;31.70;34.00;;;;;;5050493;28;20198;-69
2022/09/25 12:36:57;;;;;;;4.63;4.22;;;31.30;34.20;;;;;;5049113;28;20229;-70
2022/09/25 12:39:30;;;;;;;5.75;4.70;;;30.50;34.20;;;;;;5042782;28;20468;-66
2022/09/25 12:42:06;;;;;;;6.43;4.93;;;29.50;35.80;;;;;;5049768;28;20221;-67
2022/09/25 12:44:43;;;;;;;4.80;4.30;;;28.40;37.20;;;;;;5047801;28;20210;-66
2022/09/25 12:47:18;;;;;;;9.35;4.97;;;27.80;38.00;;;;;;5045665;28;20904;-65
2022/09/25 12:49:49;;;;;;;6.93;4.07;;;27.40;38.70;;;;;;5046216;28;20281;-65
2022/09/25 12:52:22;;;;;;;18.60;9.68;;;27.50;38.80;;;;;;5044377;28;20668;-66
2022/09/25 12:54:54;;;;;;;11.05;6.45;;;27.60;38.50;;;;;;5045337;28;20214;-67
2022/09/25 12:57:26;;;;;;;7.43;4.88;;;27.80;38.50;;;;;;5046252;28;20217;-67
2022/09/25 12:59:56;;;;;;;16.00;8.98;;;28.10;38.20;;;;;;5046776;28;20577;-69
2022/09/25 13:02:33;;;;;;;8.77;4.80;;;28.60;37.50;;;;;;5041755;28;20430;-69
2022/09/25 13:05:08;;;;;;;29.95;14.57;;;28.70;37.70;;;;;;5047689;28;20208;-68
2022/09/25 13:07:39;;;;;;;24.38;11.23;;;27.80;38.10;;;;;;5047634;28;20205;-69
2022/09/25 13:10:19;;;;;;;21.48;10.70;;;26.90;39.70;;;;;;5050474;28;20202;-68
2022/09/25 13:12:47;;;;;;;11.75;6.50;;;26.00;40.80;;;;;;5046358;28;20198;-67
2022/09/25 13:15:18;;;;;;;4.60;4.20;;;25.20;41.90;;;;;;5048453;28;20214;-69